sensor_id;sensor_type;location;lat;lon;timestamp;P1;durP1;ratioP1;P2;durP2;ratioP2
17365;SDS011;8800;50.118;9.900;2023-03-01T00:01:58;24.83;;;10.07;;
17365;SDS011;8800;50.118;9.900;2023-03-01T00:04:26;22.92;;;9.95;;
17365;SDS011;8800;50.118;9.900;2023-03-01T00:06:53;23.65;;;9.88;;
17365;SDS011;8800;50.118;9.900;2023-03-01T00:09:19;25.60;;;9.80;;
17365;SDS011;8800;50.118;9.900;2023-03-01T00:11:46;22.15;;;9.63;;
17365;SDS011;8800;50.118;9.900;2023-03-01T00:14:12;24.65;;;10.13;;
17365;SDS011;8800;50.118;9.900;2023-03-01T00:16:40;25.20;;;9.60;;
17365;SDS011;8800;50.118;9.900;2023-03-01T00:19:08;19.45;;;9.25;;
17365;SDS011;8800;50.118;9.900;2023-03-01T00:21:37;23.45;;;9.27;;
17365;SDS011;8800;50.118;9.900;2023-03-01T00:24:03;22.90;;;10.07;;
17365;SDS011;8800;50.118;9.900;2023-03-01T00:26:30;23.90;;;9.57;;
17365;SDS011;8800;50.118;9.900;2023-03-01T00:28:56;20.50;;;9.13;;
17365;SDS011;8800;50.118;9.900;2023-03-01T00:31:24;25.27;;;10.50;;
17365;SDS011;8800;50.118;9.900;2023-03-01T00:33:52;22.55;;;10.10;;
17365;SDS011;8800;50.118;9.900;2023-03-01T00:36:18;19.52;;;9.38;;
17365;SDS011;8800;50.118;9.900;2023-03-01T00:38:46;22.65;;;10.10;;
17365;SDS011;8800;50.118;9.900;2023-03-01T00:41:13;26.42;;;9.75;;
17365;SDS011;8800;50.118;9.900;2023-03-01T00:43:40;22.75;;;9.93;;
17365;SDS011;8800;50.118;9.900;2023-03-01T00:46:07;20.90;;;9.95;;
17365;SDS011;8800;50.118;9.900;2023-03-01T00:48:34;22.67;;;9.57;;
17365;SDS011;8800;50.118;9.900;2023-03-01T00:51:04;21.23;;;9.75;;
17365;SDS011;8800;50.118;9.900;2023-03-01T00:53:31;24.38;;;10.05;;
17365;SDS011;8800;50.118;9.900;2023-03-01T00:55:59;19.60;;;9.27;;
17365;SDS011;8800;50.118;9.900;2023-03-01T00:58:26;25.50;;;10.18;;
17365;SDS011;8800;50.118;9.900;2023-03-01T01:00:52;25.33;;;9.82;;
17365;SDS011;8800;50.118;9.900;2023-03-01T01:03:19;23.40;;;9.10;;
17365;SDS011;8800;50.118;9.900;2023-03-01T01:05:45;21.17;;;9.88;;
17365;SDS011;8800;50.118;9.900;2023-03-01T01:08:12;23.25;;;10.35;;
17365;SDS011;8800;50.118;9.900;2023-03-01T01:10:38;26.35;;;10.73;;
17365;SDS011;8800;50.118;9.900;2023-03-01T01:13:06;26.48;;;9.68;;
17365;SDS011;8800;50.118;9.900;2023-03-01T01:15:33;24.13;;;10.50;;
17365;SDS011;8800;50.118;9.900;2023-03-01T01:18:00;26.52;;;10.00;;
17365;SDS011;8800;50.118;9.900;2023-03-01T01:20:26;24.63;;;9.88;;
17365;SDS011;8800;50.118;9.900;2023-03-01T01:22:53;24.42;;;10.35;;
17365;SDS011;8800;50.118;9.900;2023-03-01T01:25:19;25.55;;;10.05;;
17365;SDS011;8800;50.118;9.900;2023-03-01T01:27:46;26.02;;;10.15;;
17365;SDS011;8800;50.118;9.900;2023-03-01T01:30:14;24.63;;;10.35;;
17365;SDS011;8800;50.118;9.900;2023-03-01T01:32:40;23.15;;;10.00;;
17365;SDS011;8800;50.118;9.900;2023-03-01T01:35:07;23.92;;;10.20;;
17365;SDS011;8800;50.118;9.900;2023-03-01T01:37:33;24.42;;;10.25;;
17365;SDS011;8800;50.118;9.900;2023-03-01T01:40:02;25.52;;;10.40;;
17365;SDS011;8800;50.118;9.900;2023-03-01T01:42:29;25.23;;;10.20;;
17365;SDS011;8800;50.118;9.900;2023-03-01T01:47:42;23.80;;;9.00;;
17365;SDS011;8800;50.118;9.900;2023-03-01T01:50:14;25.75;;;10.25;;
17365;SDS011;8800;50.118;9.900;2023-03-01T01:52:43;25.05;;;10.00;;
17365;SDS011;8800;50.118;9.900;2023-03-01T01:55:10;25.00;;;10.20;;
17365;SDS011;8800;50.118;9.900;2023-03-01T01:57:39;21.27;;;9.32;;
17365;SDS011;8800;50.118;9.900;2023-03-01T02:00:07;23.60;;;9.88;;
17365;SDS011;8800;50.118;9.900;2023-03-01T02:02:34;24.88;;;10.82;;
17365;SDS011;8800;50.118;9.900;2023-03-01T02:05:03;22.58;;;9.38;;
17365;SDS011;8800;50.118;9.900;2023-03-01T02:07:35;24.80;;;8.82;;
17365;SDS011;8800;50.118;9.900;2023-03-01T02:10:03;27.65;;;10.50;;
17365;SDS011;8800;50.118;9.900;2023-03-01T02:12:30;23.55;;;9.18;;
17365;SDS011;8800;50.118;9.900;2023-03-01T02:14:57;23.02;;;9.40;;
17365;SDS011;8800;50.118;9.900;2023-03-01T02:17:23;21.48;;;8.98;;
17365;SDS011;8800;50.118;9.900;2023-03-01T02:19:53;22.17;;;9.50;;
17365;SDS011;8800;50.118;9.900;2023-03-01T02:22:27;21.95;;;9.38;;
17365;SDS011;8800;50.118;9.900;2023-03-01T02:25:00;22.70;;;9.90;;
17365;SDS011;8800;50.118;9.900;2023-03-01T02:27:33;23.35;;;9.65;;
17365;SDS011;8800;50.118;9.900;2023-03-01T02:30:03;22.90;;;9.43;;
17365;SDS011;8800;50.118;9.900;2023-03-01T02:32:30;20.15;;;9.02;;
17365;SDS011;8800;50.118;9.900;2023-03-01T02:34:55;21.50;;;9.23;;
17365;SDS011;8800;50.118;9.900;2023-03-01T02:37:22;22.98;;;9.38;;
17365;SDS011;8800;50.118;9.900;2023-03-01T02:39:52;22.85;;;9.48;;
17365;SDS011;8800;50.118;9.900;2023-03-01T02:42:21;23.23;;;8.95;;
17365;SDS011;8800;50.118;9.900;2023-03-01T02:44:49;23.50;;;8.95;;
17365;SDS011;8800;50.118;9.900;2023-03-01T02:47:17;18.30;;;8.80;;
17365;SDS011;8800;50.118;9.900;2023-03-01T02:49:44;22.58;;;9.20;;
17365;SDS011;8800;50.118;9.900;2023-03-01T02:52:20;21.08;;;9.02;;
17365;SDS011;8800;50.118;9.900;2023-03-01T02:54:48;25.23;;;9.57;;
17365;SDS011;8800;50.118;9.900;2023-03-01T02:57:17;23.85;;;9.52;;
17365;SDS011;8800;50.118;9.900;2023-03-01T02:59:45;24.52;;;9.38;;
17365;SDS011;8800;50.118;9.900;2023-03-01T03:02:19;20.45;;;8.60;;
17365;SDS011;8800;50.118;9.900;2023-03-01T03:05:00;24.90;;;9.63;;
17365;SDS011;8800;50.118;9.900;2023-03-01T03:07:27;24.40;;;9.55;;
17365;SDS011;8800;50.118;9.900;2023-03-01T03:09:53;20.77;;;8.90;;
17365;SDS011;8800;50.118;9.900;2023-03-01T03:12:20;24.65;;;9.35;;
17365;SDS011;8800;50.118;9.900;2023-03-01T03:14:46;19.92;;;8.57;;
17365;SDS011;8800;50.118;9.900;2023-03-01T03:17:14;28.80;;;9.73;;
17365;SDS011;8800;50.118;9.900;2023-03-01T03:19:41;19.73;;;9.05;;
17365;SDS011;8800;50.118;9.900;2023-03-01T03:22:10;26.05;;;9.98;;
17365;SDS011;8800;50.118;9.900;2023-03-01T03:24:36;21.90;;;9.70;;
17365;SDS011;8800;50.118;9.900;2023-03-01T03:27:03;24.85;;;9.23;;
17365;SDS011;8800;50.118;9.900;2023-03-01T03:29:29;22.17;;;9.90;;
17365;SDS011;8800;50.118;9.900;2023-03-01T03:31:56;24.85;;;9.88;;
17365;SDS011;8800;50.118;9.900;2023-03-01T03:34:22;22.60;;;9.35;;
17365;SDS011;8800;50.118;9.900;2023-03-01T03:36:53;25.55;;;9.27;;
17365;SDS011;8800;50.118;9.900;2023-03-01T03:39:21;25.50;;;10.13;;
17365;SDS011;8800;50.118;9.900;2023-03-01T03:41:48;21.92;;;9.75;;
17365;SDS011;8800;50.118;9.900;2023-03-01T03:44:14;26.83;;;10.60;;
17365;SDS011;8800;50.118;9.900;2023-03-01T03:46:41;22.40;;;8.98;;
17365;SDS011;8800;50.118;9.900;2023-03-01T03:49:07;22.70;;;9.45;;
17365;SDS011;8800;50.118;9.900;2023-03-01T03:51:34;21.00;;;9.23;;
17365;SDS011;8800;50.118;9.900;2023-03-01T03:54:01;24.50;;;9.65;;
17365;SDS011;8800;50.118;9.900;2023-03-01T03:56:28;22.83;;;8.95;;
17365;SDS011;8800;50.118;9.900;2023-03-01T03:58:54;20.38;;;8.75;;
17365;SDS011;8800;50.118;9.900;2023-03-01T04:01:21;22.80;;;9.35;;
17365;SDS011;8800;50.118;9.900;2023-03-01T04:03:47;23.65;;;9.02;;
17365;SDS011;8800;50.118;9.900;2023-03-01T04:06:19;23.73;;;9.45;;
17365;SDS011;8800;50.118;9.900;2023-03-01T04:08:46;21.83;;;9.25;;
17365;SDS011;8800;50.118;9.900;2023-03-01T04:11:17;21.88;;;8.80;;
17365;SDS011;8800;50.118;9.900;2023-03-01T04:13:54;20.77;;;9.23;;
17365;SDS011;8800;50.118;9.900;2023-03-01T04:16:20;21.13;;;9.00;;
17365;SDS011;8800;50.118;9.900;2023-03-01T04:18:47;23.70;;;9.35;;
17365;SDS011;8800;50.118;9.900;2023-03-01T04:21:14;21.00;;;9.40;;
17365;SDS011;8800;50.118;9.900;2023-03-01T04:23:40;20.98;;;9.18;;
17365;SDS011;8800;50.118;9.900;2023-03-01T04:26:07;24.48;;;9.18;;
17365;SDS011;8800;50.118;9.900;2023-03-01T04:28:35;23.15;;;9.82;;
17365;SDS011;8800;50.118;9.900;2023-03-01T04:31:03;22.35;;;8.88;;
17365;SDS011;8800;50.118;9.900;2023-03-01T04:33:38;20.00;;;8.73;;
17365;SDS011;8800;50.118;9.900;2023-03-01T04:36:06;22.08;;;9.40;;
17365;SDS011;8800;50.118;9.900;2023-03-01T04:38:33;20.98;;;9.32;;
17365;SDS011;8800;50.118;9.900;2023-03-01T04:41:01;18.02;;;8.48;;
17365;SDS011;8800;50.118;9.900;2023-03-01T04:43:28;22.15;;;9.60;;
17365;SDS011;8800;50.118;9.900;2023-03-01T04:45:56;20.63;;;9.18;;
17365;SDS011;8800;50.118;9.900;2023-03-01T04:48:27;19.63;;;8.70;;
17365;SDS011;8800;50.118;9.900;2023-03-01T04:50:54;22.20;;;9.45;;
17365;SDS011;8800;50.118;9.900;2023-03-01T04:53:20;20.48;;;8.52;;
17365;SDS011;8800;50.118;9.900;2023-03-01T04:55:46;21.13;;;9.80;;
17365;SDS011;8800;50.118;9.900;2023-03-01T04:58:13;21.42;;;9.30;;
17365;SDS011;8800;50.118;9.900;2023-03-01T05:00:39;22.55;;;9.43;;
17365;SDS011;8800;50.118;9.900;2023-03-01T05:03:07;23.38;;;8.90;;
17365;SDS011;8800;50.118;9.900;2023-03-01T05:05:34;20.20;;;8.88;;
17365;SDS011;8800;50.118;9.900;2023-03-01T05:08:02;28.88;;;9.85;;
17365;SDS011;8800;50.118;9.900;2023-03-01T05:10:29;20.52;;;9.18;;
17365;SDS011;8800;50.118;9.900;2023-03-01T05:12:57;22.40;;;9.43;;
17365;SDS011;8800;50.118;9.900;2023-03-01T05:15:23;20.50;;;8.90;;
17365;SDS011;8800;50.118;9.900;2023-03-01T05:17:51;23.65;;;9.52;;
17365;SDS011;8800;50.118;9.900;2023-03-01T05:20:18;24.42;;;9.60;;
17365;SDS011;8800;50.118;9.900;2023-03-01T05:22:47;23.80;;;9.25;;
17365;SDS011;8800;50.118;9.900;2023-03-01T05:25:14;22.95;;;9.23;;
17365;SDS011;8800;50.118;9.900;2023-03-01T05:27:40;21.83;;;9.60;;
17365;SDS011;8800;50.118;9.900;2023-03-01T05:30:07;21.48;;;9.32;;
17365;SDS011;8800;50.118;9.900;2023-03-01T05:32:40;22.27;;;9.70;;
17365;SDS011;8800;50.118;9.900;2023-03-01T05:35:07;24.38;;;9.70;;
17365;SDS011;8800;50.118;9.900;2023-03-01T05:37:34;20.42;;;9.23;;
17365;SDS011;8800;50.118;9.900;2023-03-01T05:40:01;26.63;;;10.30;;
17365;SDS011;8800;50.118;9.900;2023-03-01T05:42:28;21.50;;;9.80;;
17365;SDS011;8800;50.118;9.900;2023-03-01T05:44:55;23.20;;;10.00;;
17365;SDS011;8800;50.118;9.900;2023-03-01T05:47:22;19.95;;;9.35;;
17365;SDS011;8800;50.118;9.900;2023-03-01T05:49:48;28.05;;;10.10;;
17365;SDS011;8800;50.118;9.900;2023-03-01T05:52:15;27.35;;;11.23;;
17365;SDS011;8800;50.118;9.900;2023-03-01T05:54:43;25.10;;;11.65;;
17365;SDS011;8800;50.118;9.900;2023-03-01T05:57:09;28.52;;;11.27;;
17365;SDS011;8800;50.118;9.900;2023-03-01T05:59:36;24.15;;;10.50;;
17365;SDS011;8800;50.118;9.900;2023-03-01T06:02:02;20.10;;;9.52;;
17365;SDS011;8800;50.118;9.900;2023-03-01T06:04:28;22.27;;;8.98;;
17365;SDS011;8800;50.118;9.900;2023-03-01T06:06:55;20.60;;;9.45;;
17365;SDS011;8800;50.118;9.900;2023-03-01T06:09:21;23.17;;;9.50;;
17365;SDS011;8800;50.118;9.900;2023-03-01T06:11:49;28.00;;;10.02;;
17365;SDS011;8800;50.118;9.900;2023-03-01T06:14:16;26.80;;;9.95;;
17365;SDS011;8800;50.118;9.900;2023-03-01T06:16:42;23.33;;;9.55;;
17365;SDS011;8800;50.118;9.900;2023-03-01T06:19:08;21.83;;;9.55;;
17365;SDS011;8800;50.118;9.900;2023-03-01T06:21:35;20.55;;;8.95;;
17365;SDS011;8800;50.118;9.900;2023-03-01T06:24:02;23.60;;;10.05;;
17365;SDS011;8800;50.118;9.900;2023-03-01T06:26:30;22.42;;;9.77;;
17365;SDS011;8800;50.118;9.900;2023-03-01T06:28:58;22.52;;;9.40;;
17365;SDS011;8800;50.118;9.900;2023-03-01T06:31:25;23.20;;;9.75;;
17365;SDS011;8800;50.118;9.900;2023-03-01T06:34:01;20.45;;;9.15;;
17365;SDS011;8800;50.118;9.900;2023-03-01T06:36:28;27.67;;;10.00;;
17365;SDS011;8800;50.118;9.900;2023-03-01T06:38:58;24.25;;;9.68;;
17365;SDS011;8800;50.118;9.900;2023-03-01T06:41:27;26.17;;;10.00;;
17365;SDS011;8800;50.118;9.900;2023-03-01T06:43:54;25.20;;;10.82;;
17365;SDS011;8800;50.118;9.900;2023-03-01T06:46:21;35.13;;;12.27;;
17365;SDS011;8800;50.118;9.900;2023-03-01T06:48:48;31.75;;;11.45;;
17365;SDS011;8800;50.118;9.900;2023-03-01T06:51:14;22.55;;;10.25;;
17365;SDS011;8800;50.118;9.900;2023-03-01T06:53:40;23.23;;;10.40;;
17365;SDS011;8800;50.118;9.900;2023-03-01T06:56:07;27.60;;;10.40;;
17365;SDS011;8800;50.118;9.900;2023-03-01T06:58:33;20.77;;;9.75;;
17365;SDS011;8800;50.118;9.900;2023-03-01T07:01:00;23.13;;;9.98;;
17365;SDS011;8800;50.118;9.900;2023-03-01T07:03:27;21.67;;;9.32;;
17365;SDS011;8800;50.118;9.900;2023-03-01T07:05:54;22.08;;;9.77;;
17365;SDS011;8800;50.118;9.900;2023-03-01T07:08:20;26.60;;;10.90;;
17365;SDS011;8800;50.118;9.900;2023-03-01T07:10:47;24.30;;;10.40;;
17365;SDS011;8800;50.118;9.900;2023-03-01T07:13:13;23.38;;;10.43;;
17365;SDS011;8800;50.118;9.900;2023-03-01T07:15:39;28.73;;;11.10;;
17365;SDS011;8800;50.118;9.900;2023-03-01T07:18:06;27.98;;;11.38;;
17365;SDS011;8800;50.118;9.900;2023-03-01T07:20:34;24.50;;;9.82;;
17365;SDS011;8800;50.118;9.900;2023-03-01T07:23:00;27.67;;;10.90;;
17365;SDS011;8800;50.118;9.900;2023-03-01T07:25:27;25.50;;;10.30;;
17365;SDS011;8800;50.118;9.900;2023-03-01T07:27:53;26.05;;;10.95;;
17365;SDS011;8800;50.118;9.900;2023-03-01T07:30:20;25.75;;;10.30;;
17365;SDS011;8800;50.118;9.900;2023-03-01T07:32:47;27.02;;;10.98;;
17365;SDS011;8800;50.118;9.900;2023-03-01T07:35:13;28.52;;;11.65;;
17365;SDS011;8800;50.118;9.900;2023-03-01T07:37:42;25.88;;;10.80;;
17365;SDS011;8800;50.118;9.900;2023-03-01T07:40:10;25.70;;;10.52;;
17365;SDS011;8800;50.118;9.900;2023-03-01T07:42:36;26.88;;;10.55;;
17365;SDS011;8800;50.118;9.900;2023-03-01T07:45:03;27.67;;;10.90;;
17365;SDS011;8800;50.118;9.900;2023-03-01T07:47:30;24.35;;;10.02;;
17365;SDS011;8800;50.118;9.900;2023-03-01T07:49:56;24.90;;;10.98;;
17365;SDS011;8800;50.118;9.900;2023-03-01T07:52:22;23.42;;;10.23;;
17365;SDS011;8800;50.118;9.900;2023-03-01T07:54:50;24.27;;;9.63;;
17365;SDS011;8800;50.118;9.900;2023-03-01T07:57:17;25.63;;;10.90;;
17365;SDS011;8800;50.118;9.900;2023-03-01T07:59:43;25.27;;;10.07;;
17365;SDS011;8800;50.118;9.900;2023-03-01T08:02:09;25.50;;;10.32;;
17365;SDS011;8800;50.118;9.900;2023-03-01T08:04:36;21.60;;;10.13;;
17365;SDS011;8800;50.118;9.900;2023-03-01T08:07:04;28.35;;;10.90;;
17365;SDS011;8800;50.118;9.900;2023-03-01T08:09:30;24.52;;;9.95;;
17365;SDS011;8800;50.118;9.900;2023-03-01T08:11:58;24.85;;;10.10;;
17365;SDS011;8800;50.118;9.900;2023-03-01T08:14:25;26.75;;;10.38;;
17365;SDS011;8800;50.118;9.900;2023-03-01T08:16:51;22.00;;;9.95;;
17365;SDS011;8800;50.118;9.900;2023-03-01T08:19:18;20.67;;;9.48;;
17365;SDS011;8800;50.118;9.900;2023-03-01T08:21:44;23.23;;;9.98;;
17365;SDS011;8800;50.118;9.900;2023-03-01T08:24:11;21.95;;;9.88;;
17365;SDS011;8800;50.118;9.900;2023-03-01T08:26:37;21.52;;;9.10;;
17365;SDS011;8800;50.118;9.900;2023-03-01T08:29:05;22.33;;;9.88;;
17365;SDS011;8800;50.118;9.900;2023-03-01T08:31:32;23.48;;;9.52;;
17365;SDS011;8800;50.118;9.900;2023-03-01T08:34:00;21.77;;;9.48;;
17365;SDS011;8800;50.118;9.900;2023-03-01T08:36:28;22.52;;;9.48;;
17365;SDS011;8800;50.118;9.900;2023-03-01T08:38:54;21.67;;;9.68;;
17365;SDS011;8800;50.118;9.900;2023-03-01T08:41:21;21.02;;;9.35;;
17365;SDS011;8800;50.118;9.900;2023-03-01T08:43:47;19.42;;;9.27;;
17365;SDS011;8800;50.118;9.900;2023-03-01T08:46:15;22.05;;;9.73;;
17365;SDS011;8800;50.118;9.900;2023-03-01T08:48:42;19.30;;;9.63;;
17365;SDS011;8800;50.118;9.900;2023-03-01T08:51:08;20.10;;;9.35;;
17365;SDS011;8800;50.118;9.900;2023-03-01T08:53:35;20.63;;;8.98;;
17365;SDS011;8800;50.118;9.900;2023-03-01T08:56:01;20.58;;;8.40;;
17365;SDS011;8800;50.118;9.900;2023-03-01T08:58:28;19.77;;;9.18;;
17365;SDS011;8800;50.118;9.900;2023-03-01T09:00:55;21.92;;;8.77;;
17365;SDS011;8800;50.118;9.900;2023-03-01T09:03:23;25.70;;;9.38;;
17365;SDS011;8800;50.118;9.900;2023-03-01T09:05:49;20.92;;;8.88;;
17365;SDS011;8800;50.118;9.900;2023-03-01T09:08:16;17.30;;;8.65;;
17365;SDS011;8800;50.118;9.900;2023-03-01T09:10:42;20.65;;;9.23;;
17365;SDS011;8800;50.118;9.900;2023-03-01T09:13:09;20.10;;;8.57;;
17365;SDS011;8800;50.118;9.900;2023-03-01T09:15:36;21.00;;;9.15;;
17365;SDS011;8800;50.118;9.900;2023-03-01T09:18:02;24.23;;;9.25;;
17365;SDS011;8800;50.118;9.900;2023-03-01T09:20:31;18.17;;;8.90;;
17365;SDS011;8800;50.118;9.900;2023-03-01T09:22:57;19.85;;;8.73;;
17365;SDS011;8800;50.118;9.900;2023-03-01T09:25:24;23.40;;;9.70;;
17365;SDS011;8800;50.118;9.900;2023-03-01T09:27:50;19.25;;;8.65;;
17365;SDS011;8800;50.118;9.900;2023-03-01T09:30:17;22.33;;;8.90;;
17365;SDS011;8800;50.118;9.900;2023-03-01T09:32:43;21.45;;;9.55;;
17365;SDS011;8800;50.118;9.900;2023-03-01T09:35:10;18.67;;;8.95;;
17365;SDS011;8800;50.118;9.900;2023-03-01T09:37:38;19.50;;;8.75;;
17365;SDS011;8800;50.118;9.900;2023-03-01T09:40:05;22.02;;;8.70;;
17365;SDS011;8800;50.118;9.900;2023-03-01T09:42:32;20.10;;;9.25;;
17365;SDS011;8800;50.118;9.900;2023-03-01T09:45:00;18.38;;;8.77;;
17365;SDS011;8800;50.118;9.900;2023-03-01T09:47:28;21.35;;;9.05;;
17365;SDS011;8800;50.118;9.900;2023-03-01T09:49:59;16.73;;;8.43;;
17365;SDS011;8800;50.118;9.900;2023-03-01T09:52:29;22.52;;;9.05;;
17365;SDS011;8800;50.118;9.900;2023-03-01T09:54:59;19.38;;;9.30;;
17365;SDS011;8800;50.118;9.900;2023-03-01T09:57:26;20.95;;;9.38;;
17365;SDS011;8800;50.118;9.900;2023-03-01T10:00:09;20.30;;;9.27;;
17365;SDS011;8800;50.118;9.900;2023-03-01T10:02:39;20.52;;;8.85;;
17365;SDS011;8800;50.118;9.900;2023-03-01T10:07:59;21.17;;;8.77;;
17365;SDS011;8800;50.118;9.900;2023-03-01T10:10:28;18.90;;;8.55;;
17365;SDS011;8800;50.118;9.900;2023-03-01T10:12:54;16.63;;;8.68;;
17365;SDS011;8800;50.118;9.900;2023-03-01T10:15:22;18.42;;;8.40;;
17365;SDS011;8800;50.118;9.900;2023-03-01T10:17:52;16.20;;;8.07;;
17365;SDS011;8800;50.118;9.900;2023-03-01T10:20:22;17.40;;;8.45;;
17365;SDS011;8800;50.118;9.900;2023-03-01T10:22:49;17.33;;;8.55;;
17365;SDS011;8800;50.118;9.900;2023-03-01T10:25:20;17.08;;;8.77;;
17365;SDS011;8800;50.118;9.900;2023-03-01T10:27:51;19.17;;;8.90;;
17365;SDS011;8800;50.118;9.900;2023-03-01T10:30:19;17.70;;;8.50;;
17365;SDS011;8800;50.118;9.900;2023-03-01T10:32:46;15.95;;;8.18;;
17365;SDS011;8800;50.118;9.900;2023-03-01T10:35:17;19.13;;;8.93;;
17365;SDS011;8800;50.118;9.900;2023-03-01T10:37:57;15.43;;;8.27;;
17365;SDS011;8800;50.118;9.900;2023-03-01T10:40:23;21.25;;;8.68;;
17365;SDS011;8800;50.118;9.900;2023-03-01T10:42:51;18.95;;;8.73;;
17365;SDS011;8800;50.118;9.900;2023-03-01T10:45:26;16.35;;;8.48;;
17365;SDS011;8800;50.118;9.900;2023-03-01T10:48:02;20.15;;;8.50;;
17365;SDS011;8800;50.118;9.900;2023-03-01T10:50:29;22.63;;;8.73;;
17365;SDS011;8800;50.118;9.900;2023-03-01T10:52:56;17.25;;;8.18;;
17365;SDS011;8800;50.118;9.900;2023-03-01T10:55:24;19.15;;;9.25;;
17365;SDS011;8800;50.118;9.900;2023-03-01T10:58:05;17.52;;;8.43;;
17365;SDS011;8800;50.118;9.900;2023-03-01T11:00:32;17.45;;;8.20;;
17365;SDS011;8800;50.118;9.900;2023-03-01T11:03:03;15.05;;;7.65;;
17365;SDS011;8800;50.118;9.900;2023-03-01T11:05:29;16.35;;;8.63;;
17365;SDS011;8800;50.118;9.900;2023-03-01T11:07:58;18.45;;;8.70;;
17365;SDS011;8800;50.118;9.900;2023-03-01T11:10:26;17.90;;;8.95;;
17365;SDS011;8800;50.118;9.900;2023-03-01T11:12:52;20.40;;;9.13;;
17365;SDS011;8800;50.118;9.900;2023-03-01T11:15:24;17.65;;;8.57;;
17365;SDS011;8800;50.118;9.900;2023-03-01T11:17:51;16.75;;;8.10;;
17365;SDS011;8800;50.118;9.900;2023-03-01T11:20:20;17.88;;;8.18;;
17365;SDS011;8800;50.118;9.900;2023-03-01T11:22:51;18.60;;;8.45;;
17365;SDS011;8800;50.118;9.900;2023-03-01T11:25:19;16.10;;;7.88;;
17365;SDS011;8800;50.118;9.900;2023-03-01T11:27:46;14.73;;;7.22;;
17365;SDS011;8800;50.118;9.900;2023-03-01T11:30:15;18.13;;;8.73;;
17365;SDS011;8800;50.118;9.900;2023-03-01T11:32:47;15.68;;;7.78;;
17365;SDS011;8800;50.118;9.900;2023-03-01T11:35:17;18.13;;;8.38;;
17365;SDS011;8800;50.118;9.900;2023-03-01T11:37:48;16.23;;;8.45;;
17365;SDS011;8800;50.118;9.900;2023-03-01T11:40:21;16.40;;;8.23;;
17365;SDS011;8800;50.118;9.900;2023-03-01T11:42:54;14.82;;;7.68;;
17365;SDS011;8800;50.118;9.900;2023-03-01T11:45:23;17.42;;;8.45;;
17365;SDS011;8800;50.118;9.900;2023-03-01T11:48:00;17.85;;;8.38;;
17365;SDS011;8800;50.118;9.900;2023-03-01T11:50:29;14.63;;;7.75;;
17365;SDS011;8800;50.118;9.900;2023-03-01T11:53:06;20.30;;;8.18;;
17365;SDS011;8800;50.118;9.900;2023-03-01T11:55:48;19.00;;;7.82;;
17365;SDS011;8800;50.118;9.900;2023-03-01T11:58:22;17.88;;;8.63;;
17365;SDS011;8800;50.118;9.900;2023-03-01T12:00:53;14.80;;;8.73;;
17365;SDS011;8800;50.118;9.900;2023-03-01T12:03:27;13.60;;;7.90;;
17365;SDS011;8800;50.118;9.900;2023-03-01T12:06:12;15.82;;;8.45;;
17365;SDS011;8800;50.118;9.900;2023-03-01T12:08:49;18.02;;;7.95;;
17365;SDS011;8800;50.118;9.900;2023-03-01T12:11:21;15.07;;;7.63;;
17365;SDS011;8800;50.118;9.900;2023-03-01T12:14:12;15.35;;;7.65;;
17365;SDS011;8800;50.118;9.900;2023-03-01T12:16:46;14.40;;;7.78;;
17365;SDS011;8800;50.118;9.900;2023-03-01T12:19:25;13.57;;;8.07;;
17365;SDS011;8800;50.118;9.900;2023-03-01T12:24:50;15.63;;;7.93;;
17365;SDS011;8800;50.118;9.900;2023-03-01T12:27:23;19.00;;;8.27;;
17365;SDS011;8800;50.118;9.900;2023-03-01T12:29:52;14.80;;;7.03;;
17365;SDS011;8800;50.118;9.900;2023-03-01T12:35:16;12.20;;;7.65;;
17365;SDS011;8800;50.118;9.900;2023-03-01T12:37:50;14.45;;;7.70;;
17365;SDS011;8800;50.118;9.900;2023-03-01T12:40:29;15.88;;;7.70;;
17365;SDS011;8800;50.118;9.900;2023-03-01T12:43:01;14.35;;;7.57;;
17365;SDS011;8800;50.118;9.900;2023-03-01T12:45:40;12.73;;;7.20;;
17365;SDS011;8800;50.118;9.900;2023-03-01T12:48:17;11.77;;;7.13;;
17365;SDS011;8800;50.118;9.900;2023-03-01T12:50:48;12.73;;;6.80;;
17365;SDS011;8800;50.118;9.900;2023-03-01T12:53:20;15.30;;;7.68;;
17365;SDS011;8800;50.118;9.900;2023-03-01T12:55:48;12.50;;;6.80;;
17365;SDS011;8800;50.118;9.900;2023-03-01T12:58:17;13.45;;;7.35;;
17365;SDS011;8800;50.118;9.900;2023-03-01T13:00:52;13.75;;;6.90;;
17365;SDS011;8800;50.118;9.900;2023-03-01T13:03:23;13.13;;;6.85;;
17365;SDS011;8800;50.118;9.900;2023-03-01T13:05:59;13.75;;;7.78;;
17365;SDS011;8800;50.118;9.900;2023-03-01T13:08:29;13.40;;;7.18;;
17365;SDS011;8800;50.118;9.900;2023-03-01T13:10:58;12.43;;;6.65;;
17365;SDS011;8800;50.118;9.900;2023-03-01T13:13:27;11.75;;;7.03;;
17365;SDS011;8800;50.118;9.900;2023-03-01T13:15:54;12.63;;;6.85;;
17365;SDS011;8800;50.118;9.900;2023-03-01T13:18:27;11.32;;;6.97;;
17365;SDS011;8800;50.118;9.900;2023-03-01T13:20:54;11.40;;;6.95;;
17365;SDS011;8800;50.118;9.900;2023-03-01T13:23:27;9.55;;;7.05;;
17365;SDS011;8800;50.118;9.900;2023-03-01T13:28:40;8.90;;;6.82;;
17365;SDS011;8800;50.118;9.900;2023-03-01T13:31:07;9.82;;;6.57;;
17365;SDS011;8800;50.118;9.900;2023-03-01T13:33:40;11.95;;;6.50;;
17365;SDS011;8800;50.118;9.900;2023-03-01T13:36:08;9.88;;;6.50;;
17365;SDS011;8800;50.118;9.900;2023-03-01T13:38:38;8.93;;;6.35;;
17365;SDS011;8800;50.118;9.900;2023-03-01T13:41:04;11.68;;;6.63;;
17365;SDS011;8800;50.118;9.900;2023-03-01T13:43:31;9.85;;;6.53;;
17365;SDS011;8800;50.118;9.900;2023-03-01T13:45:58;7.75;;;6.05;;
17365;SDS011;8800;50.118;9.900;2023-03-01T13:48:26;9.65;;;6.10;;
17365;SDS011;8800;50.118;9.900;2023-03-01T13:50:54;9.02;;;6.47;;
17365;SDS011;8800;50.118;9.900;2023-03-01T13:53:22;9.85;;;6.30;;
17365;SDS011;8800;50.118;9.900;2023-03-01T13:55:51;7.78;;;5.63;;
17365;SDS011;8800;50.118;9.900;2023-03-01T13:58:21;9.02;;;6.25;;
17365;SDS011;8800;50.118;9.900;2023-03-01T14:00:54;8.50;;;5.60;;
17365;SDS011;8800;50.118;9.900;2023-03-01T14:03:21;10.55;;;5.95;;
17365;SDS011;8800;50.118;9.900;2023-03-01T14:05:57;9.23;;;5.85;;
17365;SDS011;8800;50.118;9.900;2023-03-01T14:08:24;8.50;;;5.75;;
17365;SDS011;8800;50.118;9.900;2023-03-01T14:11:03;7.60;;;5.47;;
17365;SDS011;8800;50.118;9.900;2023-03-01T14:13:38;8.30;;;5.75;;
17365;SDS011;8800;50.118;9.900;2023-03-01T14:16:12;7.72;;;5.30;;
17365;SDS011;8800;50.118;9.900;2023-03-01T14:18:42;6.75;;;4.85;;
17365;SDS011;8800;50.118;9.900;2023-03-01T14:21:12;7.53;;;5.32;;
17365;SDS011;8800;50.118;9.900;2023-03-01T14:23:39;7.00;;;5.20;;
17365;SDS011;8800;50.118;9.900;2023-03-01T14:26:08;7.75;;;5.32;;
17365;SDS011;8800;50.118;9.900;2023-03-01T14:28:37;8.07;;;5.30;;
17365;SDS011;8800;50.118;9.900;2023-03-01T14:33:45;9.32;;;5.53;;
17365;SDS011;8800;50.118;9.900;2023-03-01T14:36:25;7.82;;;5.65;;
17365;SDS011;8800;50.118;9.900;2023-03-01T14:38:51;9.98;;;5.97;;
17365;SDS011;8800;50.118;9.900;2023-03-01T14:41:21;8.90;;;5.35;;
17365;SDS011;8800;50.118;9.900;2023-03-01T14:43:49;9.38;;;5.40;;
17365;SDS011;8800;50.118;9.900;2023-03-01T14:46:17;9.27;;;5.88;;
17365;SDS011;8800;50.118;9.900;2023-03-01T14:48:47;8.20;;;5.30;;
17365;SDS011;8800;50.118;9.900;2023-03-01T14:51:14;9.32;;;5.60;;
17365;SDS011;8800;50.118;9.900;2023-03-01T14:53:41;9.77;;;6.00;;
17365;SDS011;8800;50.118;9.900;2023-03-01T14:56:12;8.90;;;5.80;;
17365;SDS011;8800;50.118;9.900;2023-03-01T14:58:40;8.75;;;5.95;;
17365;SDS011;8800;50.118;9.900;2023-03-01T15:01:07;8.73;;;5.40;;
17365;SDS011;8800;50.118;9.900;2023-03-01T15:03:34;9.80;;;5.25;;
17365;SDS011;8800;50.118;9.900;2023-03-01T15:06:02;8.43;;;5.38;;
17365;SDS011;8800;50.118;9.900;2023-03-01T15:08:29;8.65;;;5.95;;
17365;SDS011;8800;50.118;9.900;2023-03-01T15:11:02;8.35;;;5.78;;